sensor_id;sensor_type;location;lat;lon;timestamp;pressure;altitude;pressure_sealevel;temperature;humidity
17607;BME280;8922;52.240;20.980;2023-02-11T00:01:36;101519.84;;;2.10;76.94
17607;BME280;8922;52.240;20.980;2023-02-11T00:04:06;101514.75;;;2.10;77.16
17607;BME280;8922;52.240;20.980;2023-02-11T00:06:35;101514.91;;;2.13;76.67
17607;BME280;8922;52.240;20.980;2023-02-11T00:09:04;101506.41;;;2.12;77.15
17607;BME280;8922;52.240;20.980;2023-02-11T00:11:33;101506.50;;;2.14;77.20
17607;BME280;8922;52.240;20.980;2023-02-11T00:14:04;101515.88;;;2.15;76.31
17607;BME280;8922;52.240;20.980;2023-02-11T00:16:35;101499.81;;;2.16;76.77
17607;BME280;8922;52.240;20.980;2023-02-11T00:19:03;101500.66;;;2.16;76.17
17607;BME280;8922;52.240;20.980;2023-02-11T00:21:33;101481.19;;;2.17;75.62
17607;BME280;8922;52.240;20.980;2023-02-11T00:24:02;101485.50;;;2.18;76.20
17607;BME280;8922;52.240;20.980;2023-02-11T00:26:34;101482.97;;;2.18;75.70
17607;BME280;8922;52.240;20.980;2023-02-11T00:29:03;101482.28;;;2.22;75.25
17607;BME280;8922;52.240;20.980;2023-02-11T00:31:32;101486.66;;;2.25;75.71
17607;BME280;8922;52.240;20.980;2023-02-11T00:34:02;101471.47;;;2.26;75.20
17607;BME280;8922;52.240;20.980;2023-02-11T00:36:31;101463.88;;;2.28;75.53
17607;BME280;8922;52.240;20.980;2023-02-11T00:38:59;101468.19;;;2.29;74.42
17607;BME280;8922;52.240;20.980;2023-02-11T00:41:28;101465.84;;;2.33;74.37
17607;BME280;8922;52.240;20.980;2023-02-11T00:43:57;101458.34;;;2.36;73.95
17607;BME280;8922;52.240;20.980;2023-02-11T00:46:25;101431.28;;;2.38;73.60
17607;BME280;8922;52.240;20.980;2023-02-11T00:48:54;101422.06;;;2.40;74.00
17607;BME280;8922;52.240;20.980;2023-02-11T00:51:26;101420.41;;;2.41;73.30
17607;BME280;8922;52.240;20.980;2023-02-11T00:53:55;101411.09;;;2.41;74.01
17607;BME280;8922;52.240;20.980;2023-02-11T00:56:24;101401.88;;;2.44;73.71
17607;BME280;8922;52.240;20.980;2023-02-11T00:58:52;101395.81;;;2.41;73.40
17607;BME280;8922;52.240;20.980;2023-02-11T01:01:21;101391.69;;;2.44;73.78
17607;BME280;8922;52.240;20.980;2023-02-11T01:03:50;101391.69;;;2.44;72.96
17607;BME280;8922;52.240;20.980;2023-02-11T01:06:18;101380.69;;;2.45;72.84
17607;BME280;8922;52.240;20.980;2023-02-11T01:08:48;101379.84;;;2.44;73.16
17607;BME280;8922;52.240;20.980;2023-02-11T01:11:19;101374.75;;;2.44;72.95
17607;BME280;8922;52.240;20.980;2023-02-11T01:13:48;101374.75;;;2.44;73.57
17607;BME280;8922;52.240;20.980;2023-02-11T01:16:18;101376.44;;;2.44;73.60
17607;BME280;8922;52.240;20.980;2023-02-11T01:18:47;101360.34;;;2.45;73.60
17607;BME280;8922;52.240;20.980;2023-02-11T01:21:16;101341.59;;;2.42;72.94
17607;BME280;8922;52.240;20.980;2023-02-11T01:23:44;101331.31;;;2.39;72.46
17607;BME280;8922;52.240;20.980;2023-02-11T01:26:14;101321.94;;;2.38;72.55
17607;BME280;8922;52.240;20.980;2023-02-11T01:28:43;101319.38;;;2.38;73.49
17607;BME280;8922;52.240;20.980;2023-02-11T01:31:11;101316.06;;;2.39;73.15
17607;BME280;8922;52.240;20.980;2023-02-11T01:33:40;101305.88;;;2.39;73.50
17607;BME280;8922;52.240;20.980;2023-02-11T01:36:09;101294.03;;;2.40;72.58
17607;BME280;8922;52.240;20.980;2023-02-11T01:38:39;101304.13;;;2.38;73.21
17607;BME280;8922;52.240;20.980;2023-02-11T01:41:11;101298.91;;;2.35;72.53
17607;BME280;8922;52.240;20.980;2023-02-11T01:43:45;101307.47;;;2.37;73.37
17607;BME280;8922;52.240;20.980;2023-02-11T01:46:25;101314.25;;;2.37;73.25
17607;BME280;8922;52.240;20.980;2023-02-11T01:48:58;101326.09;;;2.36;73.51
17607;BME280;8922;52.240;20.980;2023-02-11T01:51:32;101339.00;;;2.41;73.17
17607;BME280;8922;52.240;20.980;2023-02-11T01:54:05;101313.31;;;2.35;72.80
17607;BME280;8922;52.240;20.980;2023-02-11T01:56:55;101310.16;;;2.40;73.39
17607;BME280;8922;52.240;20.980;2023-02-11T01:59:47;101297.31;;;2.37;72.58
17607;BME280;8922;52.240;20.980;2023-02-11T02:02:24;101299.13;;;2.40;72.85
17607;BME280;8922;52.240;20.980;2023-02-11T02:04:59;101288.09;;;2.39;72.30
17607;BME280;8922;52.240;20.980;2023-02-11T02:07:35;101282.09;;;2.39;72.24
17607;BME280;8922;52.240;20.980;2023-02-11T02:10:13;101271.00;;;2.37;72.49
17607;BME280;8922;52.240;20.980;2023-02-11T02:12:43;101258.34;;;2.38;73.11
17607;BME280;8922;52.240;20.980;2023-02-11T02:15:29;101237.22;;;2.39;72.31
17607;BME280;8922;52.240;20.980;2023-02-11T02:18:07;101227.03;;;2.39;73.02
17607;BME280;8922;52.240;20.980;2023-02-11T02:24:36;101216.78;;;2.38;72.39
17607;BME280;8922;52.240;20.980;2023-02-11T02:27:34;101218.50;;;2.39;72.96
17607;BME280;8922;52.240;20.980;2023-02-11T02:30:47;101221.81;;;2.36;72.84
17607;BME280;8922;52.240;20.980;2023-02-11T02:33:43;101225.09;;;2.34;72.77
17607;BME280;8922;52.240;20.980;2023-02-11T02:36:19;101220.69;;;2.30;72.47
17607;BME280;8922;52.240;20.980;2023-02-11T02:38:54;101213.00;;;2.28;72.83
17607;BME280;8922;52.240;20.980;2023-02-11T02:41:29;101205.50;;;2.31;73.04
17607;BME280;8922;52.240;20.980;2023-02-11T02:43:58;101193.59;;;2.30;72.31
17607;BME280;8922;52.240;20.980;2023-02-11T02:46:29;101192.66;;;2.28;72.37
17607;BME280;8922;52.240;20.980;2023-02-11T02:49:00;101201.25;;;2.32;72.40
17607;BME280;8922;52.240;20.980;2023-02-11T02:51:45;101201.22;;;2.30;72.39
17607;BME280;8922;52.240;20.980;2023-02-11T02:54:58;101195.94;;;2.26;72.07
17607;BME280;8922;52.240;20.980;2023-02-11T02:57:33;101194.28;;;2.26;72.38
17607;BME280;8922;52.240;20.980;2023-02-11T03:00:20;101191.72;;;2.26;72.38
17607;BME280;8922;52.240;20.980;2023-02-11T03:03:09;101185.97;;;2.30;72.44
17607;BME280;8922;52.240;20.980;2023-02-11T03:05:50;101185.16;;;2.31;72.01
17607;BME280;8922;52.240;20.980;2023-02-11T03:08:27;101182.69;;;2.33;72.85
17607;BME280;8922;52.240;20.980;2023-02-11T03:10:58;101186.13;;;2.35;72.96
17607;BME280;8922;52.240;20.980;2023-02-11T03:13:31;101177.72;;;2.36;72.88
17607;BME280;8922;52.240;20.980;2023-02-11T03:16:05;101180.31;;;2.37;72.46
17607;BME280;8922;52.240;20.980;2023-02-11T03:18:38;101164.31;;;2.40;72.52
17607;BME280;8922;52.240;20.980;2023-02-11T03:21:10;101159.97;;;2.37;71.93
17607;BME280;8922;52.240;20.980;2023-02-11T03:23:46;101149.91;;;2.40;72.39
17607;BME280;8922;52.240;20.980;2023-02-11T03:26:24;101154.16;;;2.40;71.90
17607;BME280;8922;52.240;20.980;2023-02-11T03:28:59;101154.16;;;2.40;71.69
17607;BME280;8922;52.240;20.980;2023-02-11T03:31:36;101143.09;;;2.39;72.04
17607;BME280;8922;52.240;20.980;2023-02-11T03:34:10;101136.50;;;2.45;71.50
17607;BME280;8922;52.240;20.980;2023-02-11T03:36:47;101134.00;;;2.46;71.33
17607;BME280;8922;52.240;20.980;2023-02-11T03:39:21;101122.16;;;2.47;71.18
17607;BME280;8922;52.240;20.980;2023-02-11T03:41:55;101117.97;;;2.47;70.66
17607;BME280;8922;52.240;20.980;2023-02-11T03:44:30;101120.50;;;2.47;70.30
17607;BME280;8922;52.240;20.980;2023-02-11T03:47:02;101118.75;;;2.46;70.40
17607;BME280;8922;52.240;20.980;2023-02-11T03:49:33;101109.34;;;2.44;70.69
17607;BME280;8922;52.240;20.980;2023-02-11T03:52:06;101111.06;;;2.45;70.33
17607;BME280;8922;52.240;20.980;2023-02-11T03:54:39;101103.44;;;2.45;70.47
17607;BME280;8922;52.240;20.980;2023-02-11T03:57:08;101112.75;;;2.44;70.19
17607;BME280;8922;52.240;20.980;2023-02-11T03:59:51;101092.25;;;2.39;70.33
17607;BME280;8922;52.240;20.980;2023-02-11T04:02:22;101088.06;;;2.41;69.53
17607;BME280;8922;52.240;20.980;2023-02-11T04:04:52;101073.63;;;2.40;70.31
17607;BME280;8922;52.240;20.980;2023-02-11T04:07:22;101071.88;;;2.39;70.23
17607;BME280;8922;52.240;20.980;2023-02-11T04:09:51;101048.94;;;2.38;69.57
17607;BME280;8922;52.240;20.980;2023-02-11T04:12:19;101042.97;;;2.37;69.64
17607;BME280;8922;52.240;20.980;2023-02-11T04:14:48;101042.13;;;2.37;69.41
17607;BME280;8922;52.240;20.980;2023-02-11T04:17:16;101044.59;;;2.35;70.12
17607;BME280;8922;52.240;20.980;2023-02-11T04:19:45;101044.53;;;2.34;69.10
17607;BME280;8922;52.240;20.980;2023-02-11T04:22:13;101045.34;;;2.33;69.30
17607;BME280;8922;52.240;20.980;2023-02-11T04:24:43;101043.56;;;2.30;69.62
17607;BME280;8922;52.240;20.980;2023-02-11T04:27:11;101030.84;;;2.30;69.30
17607;BME280;8922;52.240;20.980;2023-02-11T04:29:39;101032.44;;;2.28;69.29
17607;BME280;8922;52.240;20.980;2023-02-11T04:32:08;101029.03;;;2.28;69.58
17607;BME280;8922;52.240;20.980;2023-02-11T04:34:38;101021.38;;;2.26;69.34
17607;BME280;8922;52.240;20.980;2023-02-11T04:37:06;101025.59;;;2.26;69.07
17607;BME280;8922;52.240;20.980;2023-02-11T04:39:35;101009.47;;;2.25;68.87
17607;BME280;8922;52.240;20.980;2023-02-11T04:42:05;101012.75;;;2.23;69.86
17607;BME280;8922;52.240;20.980;2023-02-11T04:44:34;100994.09;;;2.22;69.38
17607;BME280;8922;52.240;20.980;2023-02-11T04:47:03;100988.03;;;2.18;68.82
17607;BME280;8922;52.240;20.980;2023-02-11T04:49:31;100963.41;;;2.17;68.93
17607;BME280;8922;52.240;20.980;2023-02-11T04:51:59;100957.44;;;2.17;69.08
17607;BME280;8922;52.240;20.980;2023-02-11T04:54:28;100958.16;;;2.13;69.49
17607;BME280;8922;52.240;20.980;2023-02-11T04:56:56;100950.50;;;2.13;69.11
17607;BME280;8922;52.240;20.980;2023-02-11T04:59:26;100945.44;;;2.13;68.99
17607;BME280;8922;52.240;20.980;2023-02-11T05:01:54;100950.41;;;2.10;68.97
17607;BME280;8922;52.240;20.980;2023-02-11T05:04:23;100946.94;;;2.08;68.89
17607;BME280;8922;52.240;20.980;2023-02-11T05:06:51;100955.47;;;2.10;69.11
17607;BME280;8922;52.240;20.980;2023-02-11T05:09:20;100957.22;;;2.11;69.46
17607;BME280;8922;52.240;20.980;2023-02-11T05:11:48;100948.78;;;2.12;69.19
17607;BME280;8922;52.240;20.980;2023-02-11T05:14:16;100934.41;;;2.12;68.57
17607;BME280;8922;52.240;20.980;2023-02-11T05:16:46;100931.00;;;2.12;69.09
17607;BME280;8922;52.240;20.980;2023-02-11T05:19:15;100918.16;;;2.09;69.02
17607;BME280;8922;52.240;20.980;2023-02-11T05:21:43;100906.50;;;2.14;68.47
17607;BME280;8922;52.240;20.980;2023-02-11T05:24:28;100903.16;;;2.15;68.74
17607;BME280;8922;52.240;20.980;2023-02-11T05:26:56;100908.25;;;2.15;68.68
17607;BME280;8922;52.240;20.980;2023-02-11T05:29:25;100886.22;;;2.15;69.07
17607;BME280;8922;52.240;20.980;2023-02-11T05:31:55;100898.97;;;2.17;69.08
17607;BME280;8922;52.240;20.980;2023-02-11T05:34:23;100904.00;;;2.15;69.05
17607;BME280;8922;52.240;20.980;2023-02-11T05:36:51;100904.88;;;2.16;69.20
17607;BME280;8922;52.240;20.980;2023-02-11T05:39:20;100912.56;;;2.17;69.00
17607;BME280;8922;52.240;20.980;2023-02-11T05:41:48;100901.63;;;2.20;68.62
17607;BME280;8922;52.240;20.980;2023-02-11T05:44:17;100909.97;;;2.16;68.24
17607;BME280;8922;52.240;20.980;2023-02-11T05:46:45;100905.81;;;2.18;68.83
17607;BME280;8922;52.240;20.980;2023-02-11T05:49:17;100898.06;;;2.15;68.83
17607;BME280;8922;52.240;20.980;2023-02-11T05:51:45;100898.19;;;2.18;68.49
17607;BME280;8922;52.240;20.980;2023-02-11T05:54:14;100892.28;;;2.19;68.78
17607;BME280;8922;52.240;20.980;2023-02-11T05:56:42;100888.88;;;2.18;69.21
17607;BME280;8922;52.240;20.980;2023-02-11T05:59:12;100882.81;;;2.15;68.63
17607;BME280;8922;52.240;20.980;2023-02-11T06:01:41;100875.31;;;2.18;69.00
17607;BME280;8922;52.240;20.980;2023-02-11T06:04:10;100877.84;;;2.18;68.26
17607;BME280;8922;52.240;20.980;2023-02-11T06:06:40;100866.84;;;2.19;68.85
17607;BME280;8922;52.240;20.980;2023-02-11T06:09:09;100865.16;;;2.20;68.80
17607;BME280;8922;52.240;20.980;2023-02-11T06:11:38;100871.97;;;2.21;68.79
17607;BME280;8922;52.240;20.980;2023-02-11T06:14:06;100858.41;;;2.20;68.54
17607;BME280;8922;52.240;20.980;2023-02-11T06:16:36;100859.34;;;2.22;68.68
17607;BME280;8922;52.240;20.980;2023-02-11T06:19:04;100858.47;;;2.22;68.75
17607;BME280;8922;52.240;20.980;2023-02-11T06:21:32;100845.81;;;2.23;68.72
17607;BME280;8922;52.240;20.980;2023-02-11T06:24:11;100854.38;;;2.25;68.46
17607;BME280;8922;52.240;20.980;2023-02-11T06:26:40;100858.59;;;2.25;67.53
17607;BME280;8922;52.240;20.980;2023-02-11T06:29:08;100858.63;;;2.26;68.47
17607;BME280;8922;52.240;20.980;2023-02-11T06:31:37;100858.63;;;2.26;67.97
17607;BME280;8922;52.240;20.980;2023-02-11T06:34:06;100845.09;;;2.27;68.63
17607;BME280;8922;52.240;20.980;2023-02-11T06:36:37;100848.56;;;2.29;68.22
17607;BME280;8922;52.240;20.980;2023-02-11T06:39:06;100837.59;;;2.30;68.50
17607;BME280;8922;52.240;20.980;2023-02-11T06:41:36;100827.44;;;2.32;68.45
17607;BME280;8922;52.240;20.980;2023-02-11T06:44:05;100826.69;;;2.34;68.34
17607;BME280;8922;52.240;20.980;2023-02-11T06:46:34;100823.41;;;2.37;67.91
17607;BME280;8922;52.240;20.980;2023-02-11T06:49:02;100825.19;;;2.39;68.56
17607;BME280;8922;52.240;20.980;2023-02-11T06:51:31;100848.28;;;2.46;68.10
17607;BME280;8922;52.240;20.980;2023-02-11T06:53:59;100824.56;;;2.47;67.53
17607;BME280;8922;52.240;20.980;2023-02-11T06:56:27;100822.91;;;2.47;68.00
17607;BME280;8922;52.240;20.980;2023-02-11T06:58:57;100832.38;;;2.51;67.46
17607;BME280;8922;52.240;20.980;2023-02-11T07:01:27;100810.38;;;2.53;67.40
17607;BME280;8922;52.240;20.980;2023-02-11T07:03:55;100800.97;;;2.51;68.16
17607;BME280;8922;52.240;20.980;2023-02-11T07:06:25;100802.81;;;2.55;67.97
17607;BME280;8922;52.240;20.980;2023-02-11T07:08:55;100808.66;;;2.52;68.16
17607;BME280;8922;52.240;20.980;2023-02-11T07:11:27;100812.06;;;2.53;68.07
17607;BME280;8922;52.240;20.980;2023-02-11T07:14:01;100814.50;;;2.50;67.79
17607;BME280;8922;52.240;20.980;2023-02-11T07:16:31;100817.09;;;2.51;68.03
17607;BME280;8922;52.240;20.980;2023-02-11T07:19:00;100806.00;;;2.49;68.22
17607;BME280;8922;52.240;20.980;2023-02-11T07:21:29;100823.88;;;2.51;68.33
17607;BME280;8922;52.240;20.980;2023-02-11T07:23:57;100816.31;;;2.54;68.79
17607;BME280;8922;52.240;20.980;2023-02-11T07:26:26;100817.03;;;2.50;69.48
17607;BME280;8922;52.240;20.980;2023-02-11T07:28:55;100813.59;;;2.48;69.29
17607;BME280;8922;52.240;20.980;2023-02-11T07:31:27;100826.25;;;2.46;69.97
17607;BME280;8922;52.240;20.980;2023-02-11T07:33:59;100805.03;;;2.46;69.81
17607;BME280;8922;52.240;20.980;2023-02-11T07:36:29;100823.63;;;2.43;69.70
17607;BME280;8922;52.240;20.980;2023-02-11T07:38:58;100819.22;;;2.39;70.31
17607;BME280;8922;52.240;20.980;2023-02-11T07:41:27;100803.88;;;2.36;71.58
17607;BME280;8922;52.240;20.980;2023-02-11T07:43:55;100808.84;;;2.33;71.21
17607;BME280;8922;52.240;20.980;2023-02-11T07:46:26;100801.94;;;2.29;71.66
17607;BME280;8922;52.240;20.980;2023-02-11T07:48:55;100801.06;;;2.28;72.82
17607;BME280;8922;52.240;20.980;2023-02-11T07:51:26;100799.28;;;2.26;72.23
17607;BME280;8922;52.240;20.980;2023-02-11T07:53:57;100795.88;;;2.25;73.25
17607;BME280;8922;52.240;20.980;2023-02-11T07:56:27;100803.53;;;2.25;73.45
17607;BME280;8922;52.240;20.980;2023-02-11T07:59:00;100801.75;;;2.24;73.32
17607;BME280;8922;52.240;20.980;2023-02-11T08:01:30;100805.13;;;2.23;73.53
17607;BME280;8922;52.240;20.980;2023-02-11T08:04:00;100794.97;;;2.23;74.09
17607;BME280;8922;52.240;20.980;2023-02-11T08:06:31;100793.25;;;2.22;74.01
17607;BME280;8922;52.240;20.980;2023-02-11T08:09:04;100796.59;;;2.21;73.76
17607;BME280;8922;52.240;20.980;2023-02-11T08:11:33;100782.13;;;2.20;73.83
17607;BME280;8922;52.240;20.980;2023-02-11T08:14:01;100780.41;;;2.19;74.53
17607;BME280;8922;52.240;20.980;2023-02-11T08:16:33;100788.16;;;2.22;74.78
17607;BME280;8922;52.240;20.980;2023-02-11T08:19:05;100783.22;;;2.27;74.58
17607;BME280;8922;52.240;20.980;2023-02-11T08:21:34;100787.47;;;2.28;75.58
17607;BME280;8922;52.240;20.980;2023-02-11T08:24:03;100779.00;;;2.27;75.15
17607;BME280;8922;52.240;20.980;2023-02-11T08:26:33;100772.16;;;2.25;75.50
17607;BME280;8922;52.240;20.980;2023-02-11T08:29:07;100756.81;;;2.23;76.31
17607;BME280;8922;52.240;20.980;2023-02-11T08:31:40;100759.25;;;2.20;76.88
17607;BME280;8922;52.240;20.980;2023-02-11T08:34:09;100763.47;;;2.20;77.58
17607;BME280;8922;52.240;20.980;2023-02-11T08:36:41;100765.13;;;2.17;76.92
17607;BME280;8922;52.240;20.980;2023-02-11T08:39:13;100770.22;;;2.17;77.12
17607;BME280;8922;52.240;20.980;2023-02-11T08:41:46;100768.41;;;2.15;78.26
17607;BME280;8922;52.240;20.980;2023-02-11T08:44:16;100757.38;;;2.14;78.09
17607;BME280;8922;52.240;20.980;2023-02-11T08:46:46;100750.50;;;2.12;78.19
17607;BME280;8922;52.240;20.980;2023-02-11T08:49:15;100737.75;;;2.10;77.78
17607;BME280;8922;52.240;20.980;2023-02-11T08:51:45;100725.91;;;2.11;77.85
17607;BME280;8922;52.240;20.980;2023-02-11T08:54:14;100728.56;;;2.14;78.25
17607;BME280;8922;52.240;20.980;2023-02-11T08:56:44;100703.16;;;2.14;77.95
17607;BME280;8922;52.240;20.980;2023-02-11T08:59:13;100707.41;;;2.15;78.31
17607;BME280;8922;52.240;20.980;2023-02-11T09:01:43;100700.69;;;2.17;78.75
17607;BME280;8922;52.240;20.980;2023-02-11T09:04:14;100715.25;;;2.21;78.55
17607;BME280;8922;52.240;20.980;2023-02-11T09:06:43;100699.09;;;2.21;78.35
17607;BME280;8922;52.240;20.980;2023-02-11T09:09:13;100692.50;;;2.26;78.43
17607;BME280;8922;52.240;20.980;2023-02-11T09:11:43;100675.56;;;2.26;78.11
17607;BME280;8922;52.240;20.980;2023-02-11T09:14:17;100667.13;;;2.27;77.89
17607;BME280;8922;52.240;20.980;2023-02-11T09:16:47;100678.97;;;2.27;78.47
17607;BME280;8922;52.240;20.980;2023-02-11T09:19:17;100667.94;;;2.26;78.96
17607;BME280;8922;52.240;20.980;2023-02-11T09:21:46;100669.66;;;2.27;78.57
17607;BME280;8922;52.240;20.980;2023-02-11T09:24:15;100685.88;;;2.31;78.08
17607;BME280;8922;52.240;20.980;2023-02-11T09:26:43;100682.56;;;2.33;78.85
17607;BME280;8922;52.240;20.980;2023-02-11T09:29:12;100693.63;;;2.35;78.19
17607;BME280;8922;52.240;20.980;2023-02-11T09:31:40;100686.97;;;2.39;78.26
17607;BME280;8922;52.240;20.980;2023-02-11T09:34:10;100687.88;;;2.39;78.82
17607;BME280;8922;52.240;20.980;2023-02-11T09:36:41;100689.53;;;2.39;78.12
17607;BME280;8922;52.240;20.980;2023-02-11T09:39:14;100700.59;;;2.39;78.53
17607;BME280;8922;52.240;20.980;2023-02-11T09:42:22;100698.94;;;2.41;78.67
17607;BME280;8922;52.240;20.980;2023-02-11T09:44:57;100719.28;;;2.41;79.05
17607;BME280;8922;52.240;20.980;2023-02-11T09:47:31;100726.97;;;2.43;78.94
17607;BME280;8922;52.240;20.980;2023-02-11T09:50:04;100727.84;;;2.44;79.24
17607;BME280;8922;52.240;20.980;2023-02-11T09:52:42;100721.94;;;2.45;78.53
17607;BME280;8922;52.240;20.980;2023-02-11T09:55:19;100719.34;;;2.43;79.24
17607;BME280;8922;52.240;20.980;2023-02-11T09:57:48;100704.03;;;2.41;79.67
17607;BME280;8922;52.240;20.980;2023-02-11T10:00:22;100689.59;;;2.40;80.04
17607;BME280;8922;52.240;20.980;2023-02-11T10:03:19;100676.00;;;2.40;80.12
17607;BME280;8922;52.240;20.980;2023-02-11T10:09:01;100692.88;;;2.38;80.35
17607;BME280;8922;52.240;20.980;2023-02-11T10:11:41;100697.06;;;2.36;81.62
17607;BME280;8922;52.240;20.980;2023-02-11T10:14:28;100699.63;;;2.36;81.47
17607;BME280;8922;52.240;20.980;2023-02-11T10:17:14;100702.97;;;2.35;81.28
17607;BME280;8922;52.240;20.980;2023-02-11T10:20:07;100675.72;;;2.31;81.24
17607;BME280;8922;52.240;20.980;2023-02-11T10:22:47;100667.31;;;2.33;81.69
17607;BME280;8922;52.240;20.980;2023-02-11T10:25:22;100654.59;;;2.33;81.70
17607;BME280;8922;52.240;20.980;2023-02-11T10:27:53;100665.66;;;2.35;81.93
17607;BME280;8922;52.240;20.980;2023-02-11T10:30:30;100652.16;;;2.36;81.52
17607;BME280;8922;52.240;20.980;2023-02-11T10:33:03;100640.22;;;2.34;82.64
17607;BME280;8922;52.240;20.980;2023-02-11T10:35:38;100636.81;;;2.33;82.68
17607;BME280;8922;52.240;20.980;2023-02-11T10:38:07;100615.63;;;2.34;81.95
17607;BME280;8922;52.240;20.980;2023-02-11T10:40:37;100628.25;;;2.31;82.75
17607;BME280;8922;52.240;20.980;2023-02-11T10:43:10;100618.94;;;2.32;82.39
17607;BME280;8922;52.240;20.980;2023-02-11T10:45:43;100618.94;;;2.32;82.86
17607;BME280;8922;52.240;20.980;2023-02-11T10:48:41;100607.13;;;2.32;82.97
17607;BME280;8922;52.240;20.980;2023-02-11T10:51:19;100599.53;;;2.34;82.29
17607;BME280;8922;52.240;20.980;2023-02-11T10:53:50;100599.53;;;2.34;83.22
17607;BME280;8922;52.240;20.980;2023-02-11T10:56:45;100589.38;;;2.35;82.61
17607;BME280;8922;52.240;20.980;2023-02-11T10:59:24;100597.00;;;2.35;82.56
17607;BME280;8922;52.240;20.980;2023-02-11T11:01:57;100613.19;;;2.37;83.55
17607;BME280;8922;52.240;20.980;2023-02-11T11:04:38;100609.91;;;2.40;82.85
17607;BME280;8922;52.240;20.980;2023-02-11T11:07:17;100584.50;;;2.41;82.73
17607;BME280;8922;52.240;20.980;2023-02-11T11:09:51;100585.31;;;2.40;82.75
17607;BME280;8922;52.240;20.980;2023-02-11T11:12:35;100592.13;;;2.41;82.72
17607;BME280;8922;52.240;20.980;2023-02-11T11:15:17;100591.38;;;2.44;83.32
17607;BME280;8922;52.240;20.980;2023-02-11T11:17:48;100602.44;;;2.46;82.50
17607;BME280;8922;52.240;20.980;2023-02-11T11:20:23;100611.88;;;2.50;82.58
17607;BME280;8922;52.240;20.980;2023-02-11T11:23:10;100616.91;;;2.47;82.46
17607;BME280;8922;52.240;20.980;2023-02-11T11:25:44;100624.59;;;2.50;83.02
17607;BME280;8922;52.240;20.980;2023-02-11T11:28:24;100618.72;;;2.51;82.56
17607;BME280;8922;52.240;20.980;2023-02-11T11:30:54;100616.19;;;2.53;82.64
17607;BME280;8922;52.240;20.980;2023-02-11T11:33:28;100618.75;;;2.53;83.06
17607;BME280;8922;52.240;20.980;2023-02-11T11:36:02;100608.56;;;2.53;82.87
17607;BME280;8922;52.240;20.980;2023-02-11T11:38:34;100617.91;;;2.54;83.06
17607;BME280;8922;52.240;20.980;2023-02-11T11:41:21;100614.63;;;2.56;82.78
17607;BME280;8922;52.240;20.980;2023-02-11T11:44:02;100607.03;;;2.58;83.00
17607;BME280;8922;52.240;20.980;2023-02-11T11:46:35;100592.66;;;2.60;83.10
17607;BME280;8922;52.240;20.980;2023-02-11T11:49:22;100594.38;;;2.61;83.49
17607;BME280;8922;52.240;20.980;2023-02-11T11:52:06;100585.03;;;2.60;83.33
17607;BME280;8922;52.240;20.980;2023-02-11T11:54:37;100571.56;;;2.62;83.81
17607;BME280;8922;52.240;20.980;2023-02-11T11:57:13;100564.78;;;2.63;83.09
17607;BME280;8922;52.240;20.980;2023-02-11T11:59:43;100574.13;;;2.64;83.57
17607;BME280;8922;52.240;20.980;2023-02-11T12:02:44;100566.56;;;2.65;83.84
17607;BME280;8922;52.240;20.980;2023-02-11T12:05:25;100564.88;;;2.66;83.75
17607;BME280;8922;52.240;20.980;2023-02-11T12:08:09;100571.59;;;2.64;84.19
17607;BME280;8922;52.240;20.980;2023-02-11T12:11:00;100573.41;;;2.68;83.93
17607;BME280;8922;52.240;20.980;2023-02-11T12:13:57;100575.16;;;2.69;84.72
17607;BME280;8922;52.240;20.980;2023-02-11T12:16:38;100578.56;;;2.71;84.30
17607;BME280;8922;52.240;20.980;2023-02-11T12:19:50;100560.84;;;2.73;83.81
17607;BME280;8922;52.240;20.980;2023-02-11T12:22:37;100559.09;;;2.72;84.16
17607;BME280;8922;52.240;20.980;2023-02-11T12:25:34;100569.22;;;2.70;84.50
17607;BME280;8922;52.240;20.980;2023-02-11T12:28:21;100557.50;;;2.75;84.69
17607;BME280;8922;52.240;20.980;2023-02-11T12:31:22;100566.03;;;2.77;84.46
17607;BME280;8922;52.240;20.980;2023-02-11T12:34:24;100564.34;;;2.78;84.30
17607;BME280;8922;52.240;20.980;2023-02-11T12:37:05;100571.22;;;2.80;84.43
17607;BME280;8922;52.240;20.980;2023-02-11T12:39:42;100578.84;;;2.80;84.20
17607;BME280;8922;52.240;20.980;2023-02-11T12:42:41;100571.28;;;2.83;84.22
17607;BME280;8922;52.240;20.980;2023-02-11T12:46:12;100574.75;;;2.85;84.77
17607;BME280;8922;52.240;20.980;2023-02-11T12:49:22;100563.81;;;2.88;84.81
17607;BME280;8922;52.240;20.980;2023-02-11T12:52:10;100556.19;;;2.89;84.47
17607;BME280;8922;52.240;20.980;2023-02-11T12:54:47;100540.19;;;2.94;84.11
17607;BME280;8922;52.240;20.980;2023-02-11T12:57:22;100549.63;;;2.98;83.90
17607;BME280;8922;52.240;20.980;2023-02-11T12:59:58;100547.13;;;2.99;84.27
17607;BME280;8922;52.240;20.980;2023-02-11T13:02:38;100566.69;;;3.02;84.05
17607;BME280;8922;52.240;20.980;2023-02-11T13:05:22;100562.56;;;3.05;84.06
17607;BME280;8922;52.240;20.980;2023-02-11T13:07:56;100548.19;;;3.07;83.98
17607;BME280;8922;52.240;20.980;2023-02-11T13:10:32;100562.72;;;3.11;84.43
17607;BME280;8922;52.240;20.980;2023-02-11T13:13:04;100543.22;;;3.12;84.43
17607;BME280;8922;52.240;20.980;2023-02-11T13:15:53;100568.78;;;3.15;83.96
17607;BME280;8922;52.240;20.980;2023-02-11T13:18:33;100550.13;;;3.16;83.62
17607;BME280;8922;52.240;20.980;2023-02-11T13:21:30;100554.41;;;3.17;83.55
17607;BME280;8922;52.240;20.980;2023-02-11T13:24:17;100563.00;;;3.21;84.27
17607;BME280;8922;52.240;20.980;2023-02-11T13:26:54;100546.13;;;3.24;83.74
17607;BME280;8922;52.240;20.980;2023-02-11T13:29:35;100558.00;;;3.25;83.75
17607;BME280;8922;52.240;20.980;2023-02-11T13:32:10;100579.28;;;3.27;84.23
17607;BME280;8922;52.240;20.980;2023-02-11T13:34:58;100572.56;;;3.29;83.04
17607;BME280;8922;52.240;20.980;2023-02-11T13:37:33;100558.97;;;3.29;83.77
17607;BME280;8922;52.240;20.980;2023-02-11T13:40:18;100562.44;;;3.32;82.95
17607;BME280;8922;52.240;20.980;2023-02-11T13:42:51;100561.59;;;3.32;83.32
17607;BME280;8922;52.240;20.980;2023-02-11T13:45:29;100554.81;;;3.32;83.60